sensor_id;sensor_type;location;lat;lon;timestamp;pressure;altitude;pressure_sealevel;temperature
7830;BMP180;3960;51.86894000;5.39848000;2023-06-19T00:00:30;100730.88;;;22.28
7830;BMP180;3960;51.86894000;5.39848000;2023-06-19T00:02:59;100768.94;;;22.44
7830;BMP180;3960;51.86894000;5.39848000;2023-06-19T00:05:34;100692.88;;;21.92
7830;BMP180;3960;51.86894000;5.39848000;2023-06-19T00:08:01;100747.16;;;22.26
7830;BMP180;3960;51.86894000;5.39848000;2023-06-19T00:10:32;100726.16;;;22.08
7830;BMP180;3960;51.86894000;5.39848000;2023-06-19T00:13:08;100793.53;;;22.42
7830;BMP180;3960;51.86894000;5.39848000;2023-06-19T00:15:33;100735.81;;;21.99
7830;BMP180;3960;51.86894000;5.39848000;2023-06-19T00:18:02;100707.16;;;21.71
7830;BMP180;3960;51.86894000;5.39848000;2023-06-19T00:20:37;100767.47;;;22.03
7830;BMP180;3960;51.86894000;5.39848000;2023-06-19T00:23:04;100808.53;;;22.21
7830;BMP180;3960;51.86894000;5.39848000;2023-06-19T00:25:33;100792.69;;;22.16
7830;BMP180;3960;51.86894000;5.39848000;2023-06-19T00:28:10;100809.16;;;22.10
7830;BMP180;3960;51.86894000;5.39848000;2023-06-19T00:30:41;100754.50;;;21.69
7830;BMP180;3960;51.86894000;5.39848000;2023-06-19T00:33:17;100768.47;;;21.66
7830;BMP180;3960;51.86894000;5.39848000;2023-06-19T00:36:08;100823.03;;;21.96
7830;BMP180;3960;51.86894000;5.39848000;2023-06-19T00:38:34;100805.50;;;21.79
7830;BMP180;3960;51.86894000;5.39848000;2023-06-19T00:41:04;100786.47;;;21.61
7830;BMP180;3960;51.86894000;5.39848000;2023-06-19T00:43:39;100822.31;;;21.81
7830;BMP180;3960;51.86894000;5.39848000;2023-06-19T00:46:12;100753.44;;;21.32
7830;BMP180;3960;51.86894000;5.39848000;2023-06-19T00:48:46;100776.41;;;21.44
7830;BMP180;3960;51.86894000;5.39848000;2023-06-19T00:51:32;100737.63;;;21.13
7830;BMP180;3960;51.86894000;5.39848000;2023-06-19T00:54:07;100825.38;;;21.69
7830;BMP180;3960;51.86894000;5.39848000;2023-06-19T00:56:33;100746.56;;;21.08
7830;BMP180;3960;51.86894000;5.39848000;2023-06-19T00:59:06;100835.13;;;21.64
7830;BMP180;3960;51.86894000;5.39848000;2023-06-19T01:01:36;100837.09;;;21.64
7830;BMP180;3960;51.86894000;5.39848000;2023-06-19T01:04:04;100748.41;;;20.97
7830;BMP180;3960;51.86894000;5.39848000;2023-06-19T01:06:42;100846.03;;;21.59
7830;BMP180;3960;51.86894000;5.39848000;2023-06-19T01:09:11;100796.22;;;21.28
7830;BMP180;3960;51.86894000;5.39848000;2023-06-19T01:11:59;100835.03;;;21.44
7830;BMP180;3960;51.86894000;5.39848000;2023-06-19T01:14:42;100857.44;;;21.52
7830;BMP180;3960;51.86894000;5.39848000;2023-06-19T01:17:17;100822.22;;;21.27
7830;BMP180;3960;51.86894000;5.39848000;2023-06-19T01:19:57;100826.41;;;21.23
7830;BMP180;3960;51.86894000;5.39848000;2023-06-19T01:22:31;100761.94;;;20.71
7830;BMP180;3960;51.86894000;5.39848000;2023-06-19T01:24:59;100862.38;;;21.33
7830;BMP180;3960;51.86894000;5.39848000;2023-06-19T01:27:29;100776.47;;;20.72
7830;BMP180;3960;51.86894000;5.39848000;2023-06-19T01:30:03;100826.41;;;20.94
7830;BMP180;3960;51.86894000;5.39848000;2023-06-19T01:35:33;100878.06;;;21.13
7830;BMP180;3960;51.86894000;5.39848000;2023-06-19T01:38:01;100833.16;;;20.78
7830;BMP180;3960;51.86894000;5.39848000;2023-06-19T01:40:28;100816.31;;;20.62
7830;BMP180;3960;51.86894000;5.39848000;2023-06-19T01:42:58;100830.47;;;20.69
7830;BMP180;3960;51.86894000;5.39848000;2023-06-19T01:45:29;100890.03;;;20.96
7830;BMP180;3960;51.86894000;5.39848000;2023-06-19T01:47:54;100859.63;;;20.76
7830;BMP180;3960;51.86894000;5.39848000;2023-06-19T01:50:24;100855.13;;;20.64
7830;BMP180;3960;51.86894000;5.39848000;2023-06-19T01:52:58;100882.50;;;20.82
7830;BMP180;3960;51.86894000;5.39848000;2023-06-19T01:55:24;100883.91;;;20.77
7830;BMP180;3960;51.86894000;5.39848000;2023-06-19T01:57:50;100821.75;;;20.33
7830;BMP180;3960;51.86894000;5.39848000;2023-06-19T02:00:22;100886.25;;;20.70
7830;BMP180;3960;51.86894000;5.39848000;2023-06-19T02:02:49;100852.53;;;20.46
7830;BMP180;3960;51.86894000;5.39848000;2023-06-19T02:05:27;100793.69;;;20.06
7830;BMP180;3960;51.86894000;5.39848000;2023-06-19T02:07:57;100897.56;;;20.72
7830;BMP180;3960;51.86894000;5.39848000;2023-06-19T02:10:32;100891.28;;;20.71
7830;BMP180;3960;51.86894000;5.39848000;2023-06-19T02:13:01;100836.25;;;20.34
7830;BMP180;3960;51.86894000;5.39848000;2023-06-19T02:15:34;100798.75;;;20.07
7830;BMP180;3960;51.86894000;5.39848000;2023-06-19T02:18:09;100873.53;;;20.58
7830;BMP180;3960;51.86894000;5.39848000;2023-06-19T02:20:40;100900.56;;;20.74
7830;BMP180;3960;51.86894000;5.39848000;2023-06-19T02:23:05;100887.84;;;20.62
7830;BMP180;3960;51.86894000;5.39848000;2023-06-19T02:25:31;100851.84;;;20.37
7830;BMP180;3960;51.86894000;5.39848000;2023-06-19T02:28:00;100814.41;;;20.16
7830;BMP180;3960;51.86894000;5.39848000;2023-06-19T02:30:26;100833.81;;;20.36
7830;BMP180;3960;51.86894000;5.39848000;2023-06-19T02:32:54;100823.34;;;20.25
7830;BMP180;3960;51.86894000;5.39848000;2023-06-19T02:35:28;100837.03;;;20.34
7830;BMP180;3960;51.86894000;5.39848000;2023-06-19T02:38:01;100832.81;;;20.24
7830;BMP180;3960;51.86894000;5.39848000;2023-06-19T02:40:29;100862.47;;;20.44
7830;BMP180;3960;51.86894000;5.39848000;2023-06-19T02:42:55;100913.13;;;20.75
7830;BMP180;3960;51.86894000;5.39848000;2023-06-19T02:45:28;100820.66;;;20.16
7830;BMP180;3960;51.86894000;5.39848000;2023-06-19T02:47:57;100916.19;;;20.77
7830;BMP180;3960;51.86894000;5.39848000;2023-06-19T02:50:25;100834.91;;;20.29
7830;BMP180;3960;51.86894000;5.39848000;2023-06-19T02:52:59;100851.84;;;20.37
7830;BMP180;3960;51.86894000;5.39848000;2023-06-19T02:55:27;100910.09;;;20.73
7830;BMP180;3960;51.86894000;5.39848000;2023-06-19T02:57:58;100872.53;;;20.47
7830;BMP180;3960;51.86894000;5.39848000;2023-06-19T03:00:25;100827.84;;;20.14
7830;BMP180;3960;51.86894000;5.39848000;2023-06-19T03:02:53;100888.38;;;20.52
7830;BMP180;3960;51.86894000;5.39848000;2023-06-19T03:05:19;100835.81;;;20.12
7830;BMP180;3960;51.86894000;5.39848000;2023-06-19T03:07:57;100862.72;;;20.31
7830;BMP180;3960;51.86894000;5.39848000;2023-06-19T03:10:22;100922.19;;;20.66
7830;BMP180;3960;51.86894000;5.39848000;2023-06-19T03:13:08;100925.44;;;20.65
7830;BMP180;3960;51.86894000;5.39848000;2023-06-19T03:15:44;100877.56;;;20.25
7830;BMP180;3960;51.86894000;5.39848000;2023-06-19T03:18:10;100883.59;;;20.38
7830;BMP180;3960;51.86894000;5.39848000;2023-06-19T03:20:36;100871.78;;;20.23
7830;BMP180;3960;51.86894000;5.39848000;2023-06-19T03:23:01;100869.50;;;20.21
7830;BMP180;3960;51.86894000;5.39848000;2023-06-19T03:25:27;100906.66;;;20.40
7830;BMP180;3960;51.86894000;5.39848000;2023-06-19T03:28:06;100838.69;;;19.94
7830;BMP180;3960;51.86894000;5.39848000;2023-06-19T03:30:31;100942.94;;;20.53
7830;BMP180;3960;51.86894000;5.39848000;2023-06-19T03:32:59;100870.78;;;20.11
7830;BMP180;3960;51.86894000;5.39848000;2023-06-19T03:35:25;100889.69;;;20.18
7830;BMP180;3960;51.86894000;5.39848000;2023-06-19T03:37:50;100920.94;;;20.30
7830;BMP180;3960;51.86894000;5.39848000;2023-06-19T03:40:16;100895.38;;;20.15
7830;BMP180;3960;51.86894000;5.39848000;2023-06-19T03:42:43;100947.59;;;20.47
7830;BMP180;3960;51.86894000;5.39848000;2023-06-19T03:45:12;100897.81;;;20.13
7830;BMP180;3960;51.86894000;5.39848000;2023-06-19T03:47:37;100897.41;;;20.05
7830;BMP180;3960;51.86894000;5.39848000;2023-06-19T03:50:05;100896.19;;;20.06
7830;BMP180;3960;51.86894000;5.39848000;2023-06-19T03:52:35;100936.41;;;20.27
7830;BMP180;3960;51.86894000;5.39848000;2023-06-19T03:55:00;100904.44;;;20.06
7830;BMP180;3960;51.86894000;5.39848000;2023-06-19T03:57:29;100917.22;;;20.09
7830;BMP180;3960;51.86894000;5.39848000;2023-06-19T03:59:58;100878.84;;;19.82
7830;BMP180;3960;51.86894000;5.39848000;2023-06-19T04:02:23;100975.53;;;20.46
7830;BMP180;3960;51.86894000;5.39848000;2023-06-19T04:04:49;100920.44;;;20.08
7830;BMP180;3960;51.86894000;5.39848000;2023-06-19T04:07:17;100938.88;;;20.16
7830;BMP180;3960;51.86894000;5.39848000;2023-06-19T04:09:42;100911.50;;;19.89
7830;BMP180;3960;51.86894000;5.39848000;2023-06-19T04:12:08;100979.44;;;20.30
7830;BMP180;3960;51.86894000;5.39848000;2023-06-19T04:14:34;100929.38;;;19.94
7830;BMP180;3960;51.86894000;5.39848000;2023-06-19T04:16:59;100903.81;;;19.70
7830;BMP180;3960;51.86894000;5.39848000;2023-06-19T04:19:24;100930.63;;;19.84
7830;BMP180;3960;51.86894000;5.39848000;2023-06-19T04:21:50;101015.19;;;20.30
7830;BMP180;3960;51.86894000;5.39848000;2023-06-19T04:24:15;100997.25;;;20.11
7830;BMP180;3960;51.86894000;5.39848000;2023-06-19T04:26:41;101016.19;;;20.18
7830;BMP180;3960;51.86894000;5.39848000;2023-06-19T04:29:07;100974.94;;;19.77
7830;BMP180;3960;51.86894000;5.39848000;2023-06-19T04:31:36;100980.88;;;19.76
7830;BMP180;3960;51.86894000;5.39848000;2023-06-19T04:34:11;101034.09;;;20.05
7830;BMP180;3960;51.86894000;5.39848000;2023-06-19T04:36:37;100959.41;;;19.56
7830;BMP180;3960;51.86894000;5.39848000;2023-06-19T04:39:07;100934.91;;;19.35
7830;BMP180;3960;51.86894000;5.39848000;2023-06-19T04:41:33;100988.53;;;19.72
7830;BMP180;3960;51.86894000;5.39848000;2023-06-19T04:44:01;100958.38;;;19.45
7830;BMP180;3960;51.86894000;5.39848000;2023-06-19T04:46:28;100993.44;;;19.68
7830;BMP180;3960;51.86894000;5.39848000;2023-06-19T04:48:53;100990.69;;;19.68
7830;BMP180;3960;51.86894000;5.39848000;2023-06-19T04:51:22;101048.03;;;20.01
7830;BMP180;3960;51.86894000;5.39848000;2023-06-19T04:53:54;100961.41;;;19.47
7830;BMP180;3960;51.86894000;5.39848000;2023-06-19T04:56:40;100958.97;;;19.49
7830;BMP180;3960;51.86894000;5.39848000;2023-06-19T04:59:05;100998.44;;;19.78
7830;BMP180;3960;51.86894000;5.39848000;2023-06-19T05:01:31;101002.25;;;19.80
7830;BMP180;3960;51.86894000;5.39848000;2023-06-19T05:03:59;100988.22;;;19.70
7830;BMP180;3960;51.86894000;5.39848000;2023-06-19T05:06:25;100987.31;;;19.64
7830;BMP180;3960;51.86894000;5.39848000;2023-06-19T05:08:51;101013.69;;;19.79
7830;BMP180;3960;51.86894000;5.39848000;2023-06-19T05:11:17;101000.56;;;19.74
7830;BMP180;3960;51.86894000;5.39848000;2023-06-19T05:13:42;101038.25;;;19.91
7830;BMP180;3960;51.86894000;5.39848000;2023-06-19T05:16:08;101005.31;;;19.74
7830;BMP180;3960;51.86894000;5.39848000;2023-06-19T05:18:36;101006.97;;;19.80
7830;BMP180;3960;51.86894000;5.39848000;2023-06-19T05:21:02;101015.66;;;19.87
7830;BMP180;3960;51.86894000;5.39848000;2023-06-19T05:23:27;101009.22;;;19.90
7830;BMP180;3960;51.86894000;5.39848000;2023-06-19T05:25:53;101037.44;;;20.18
7830;BMP180;3960;51.86894000;5.39848000;2023-06-19T05:28:24;101020.16;;;20.17
7830;BMP180;3960;51.86894000;5.39848000;2023-06-19T05:30:54;101072.66;;;20.60
7830;BMP180;3960;51.86894000;5.39848000;2023-06-19T05:33:30;101078.19;;;20.93
7830;BMP180;3960;51.86894000;5.39848000;2023-06-19T05:36:07;101024.88;;;20.81
7830;BMP180;3960;51.86894000;5.39848000;2023-06-19T05:38:45;101046.38;;;21.29
7830;BMP180;3960;51.86894000;5.39848000;2023-06-19T05:41:22;100979.75;;;21.02
7830;BMP180;3960;51.86894000;5.39848000;2023-06-19T05:44:09;101057.66;;;21.55
7830;BMP180;3960;51.86894000;5.39848000;2023-06-19T05:46:35;101027.47;;;21.37
7830;BMP180;3960;51.86894000;5.39848000;2023-06-19T05:49:12;100981.69;;;21.39
7830;BMP180;3960;51.86894000;5.39848000;2023-06-19T05:51:50;101007.47;;;21.65
7830;BMP180;3960;51.86894000;5.39848000;2023-06-19T05:54:18;101031.34;;;21.83
7830;BMP180;3960;51.86894000;5.39848000;2023-06-19T05:57:10;100991.59;;;21.31
7830;BMP180;3960;51.86894000;5.39848000;2023-06-19T05:59:46;101038.38;;;21.55
7830;BMP180;3960;51.86894000;5.39848000;2023-06-19T06:05:10;100994.91;;;21.35
7830;BMP180;3960;51.86894000;5.39848000;2023-06-19T06:08:07;101088.97;;;22.09
7830;BMP180;3960;51.86894000;5.39848000;2023-06-19T06:11:02;101093.72;;;21.95
7830;BMP180;3960;51.86894000;5.39848000;2023-06-19T06:13:40;101075.94;;;21.67
7830;BMP180;3960;51.86894000;5.39848000;2023-06-19T06:16:15;101039.34;;;21.28
7830;BMP180;3960;51.86894000;5.39848000;2023-06-19T06:18:54;101046.88;;;21.28
7830;BMP180;3960;51.86894000;5.39848000;2023-06-19T06:21:31;101123.28;;;21.80
7830;BMP180;3960;51.86894000;5.39848000;2023-06-19T06:24:04;101033.53;;;21.27
7830;BMP180;3960;51.86894000;5.39848000;2023-06-19T06:26:32;101066.84;;;21.52
7830;BMP180;3960;51.86894000;5.39848000;2023-06-19T06:28:58;101115.19;;;21.76
7830;BMP180;3960;51.86894000;5.39848000;2023-06-19T06:31:24;101073.59;;;21.51
7830;BMP180;3960;51.86894000;5.39848000;2023-06-19T06:33:51;101106.44;;;21.63
7830;BMP180;3960;51.86894000;5.39848000;2023-06-19T06:36:17;101143.34;;;21.80
7830;BMP180;3960;51.86894000;5.39848000;2023-06-19T06:38:44;101136.69;;;21.87
7830;BMP180;3960;51.86894000;5.39848000;2023-06-19T06:41:10;101134.13;;;21.83
7830;BMP180;3960;51.86894000;5.39848000;2023-06-19T06:43:35;101126.50;;;21.78
7830;BMP180;3960;51.86894000;5.39848000;2023-06-19T06:46:00;101164.47;;;21.83
7830;BMP180;3960;51.86894000;5.39848000;2023-06-19T06:48:26;101167.41;;;21.80
7830;BMP180;3960;51.86894000;5.39848000;2023-06-19T06:50:51;101172.78;;;21.74
7830;BMP180;3960;51.86894000;5.39848000;2023-06-19T06:53:24;101173.09;;;21.76
7830;BMP180;3960;51.86894000;5.39848000;2023-06-19T06:55:50;101170.41;;;21.82
7830;BMP180;3960;51.86894000;5.39848000;2023-06-19T06:58:15;101169.06;;;22.44
7830;BMP180;3960;51.86894000;5.39848000;2023-06-19T07:00:42;101153.63;;;23.15
7830;BMP180;3960;51.86894000;5.39848000;2023-06-19T07:03:08;101172.59;;;22.93
7830;BMP180;3960;51.86894000;5.39848000;2023-06-19T07:05:33;101171.81;;;22.73
7830;BMP180;3960;51.86894000;5.39848000;2023-06-19T07:07:59;101174.50;;;22.53
7830;BMP180;3960;51.86894000;5.39848000;2023-06-19T07:10:24;101181.84;;;22.56
7830;BMP180;3960;51.86894000;5.39848000;2023-06-19T07:12:49;101164.41;;;22.50
7830;BMP180;3960;51.86894000;5.39848000;2023-06-19T07:15:16;101197.44;;;22.59
7830;BMP180;3960;51.86894000;5.39848000;2023-06-19T07:17:43;101207.59;;;22.67
7830;BMP180;3960;51.86894000;5.39848000;2023-06-19T07:20:09;101190.94;;;22.47
7830;BMP180;3960;51.86894000;5.39848000;2023-06-19T07:22:34;101207.03;;;22.63
7830;BMP180;3960;51.86894000;5.39848000;2023-06-19T07:25:00;101210.53;;;22.92
7830;BMP180;3960;51.86894000;5.39848000;2023-06-19T07:27:25;101204.59;;;22.99
7830;BMP180;3960;51.86894000;5.39848000;2023-06-19T07:29:53;101207.53;;;23.10
7830;BMP180;3960;51.86894000;5.39848000;2023-06-19T07:32:19;101201.81;;;23.14
7830;BMP180;3960;51.86894000;5.39848000;2023-06-19T07:34:45;101212.38;;;23.15
7830;BMP180;3960;51.86894000;5.39848000;2023-06-19T07:37:10;101222.41;;;23.13
7830;BMP180;3960;51.86894000;5.39848000;2023-06-19T07:39:42;101215.16;;;23.01
7830;BMP180;3960;51.86894000;5.39848000;2023-06-19T07:42:12;101229.25;;;23.17
7830;BMP180;3960;51.86894000;5.39848000;2023-06-19T07:44:38;101199.28;;;22.96
7830;BMP180;3960;51.86894000;5.39848000;2023-06-19T07:47:03;101236.69;;;22.97
7830;BMP180;3960;51.86894000;5.39848000;2023-06-19T07:49:29;101202.44;;;22.89
7830;BMP180;3960;51.86894000;5.39848000;2023-06-19T07:51:54;101233.63;;;23.24
7830;BMP180;3960;51.86894000;5.39848000;2023-06-19T07:54:19;101219.78;;;23.04
7830;BMP180;3960;51.86894000;5.39848000;2023-06-19T07:56:44;101230.34;;;23.59
7830;BMP180;3960;51.86894000;5.39848000;2023-06-19T07:59:10;101246.41;;;23.75
7830;BMP180;3960;51.86894000;5.39848000;2023-06-19T08:01:35;101228.47;;;23.51
7830;BMP180;3960;51.86894000;5.39848000;2023-06-19T08:04:00;101236.41;;;23.63
7830;BMP180;3960;51.86894000;5.39848000;2023-06-19T08:06:26;101253.56;;;23.67
7830;BMP180;3960;51.86894000;5.39848000;2023-06-19T08:08:51;101227.91;;;23.67
7830;BMP180;3960;51.86894000;5.39848000;2023-06-19T08:11:17;101230.88;;;23.63
7830;BMP180;3960;51.86894000;5.39848000;2023-06-19T08:13:42;101231.84;;;23.60
7830;BMP180;3960;51.86894000;5.39848000;2023-06-19T08:16:07;101244.84;;;24.14
7830;BMP180;3960;51.86894000;5.39848000;2023-06-19T08:18:33;101252.44;;;24.19
7830;BMP180;3960;51.86894000;5.39848000;2023-06-19T08:20:59;101240.13;;;24.20
7830;BMP180;3960;51.86894000;5.39848000;2023-06-19T08:23:24;101222.56;;;24.79
7830;BMP180;3960;51.86894000;5.39848000;2023-06-19T08:25:49;101227.59;;;25.48
7830;BMP180;3960;51.86894000;5.39848000;2023-06-19T08:28:16;101260.16;;;25.64
7830;BMP180;3960;51.86894000;5.39848000;2023-06-19T08:30:44;101258.50;;;25.77
7830;BMP180;3960;51.86894000;5.39848000;2023-06-19T08:33:09;101264.81;;;25.78
7830;BMP180;3960;51.86894000;5.39848000;2023-06-19T08:35:41;101270.38;;;25.83
7830;BMP180;3960;51.86894000;5.39848000;2023-06-19T08:38:06;101278.00;;;25.99
7830;BMP180;3960;51.86894000;5.39848000;2023-06-19T08:40:33;101286.41;;;26.21
7830;BMP180;3960;51.86894000;5.39848000;2023-06-19T08:42:58;101281.00;;;25.95
7830;BMP180;3960;51.86894000;5.39848000;2023-06-19T08:45:26;101277.47;;;25.89
7830;BMP180;3960;51.86894000;5.39848000;2023-06-19T08:48:01;101271.22;;;26.05
7830;BMP180;3960;51.86894000;5.39848000;2023-06-19T08:50:29;101270.13;;;26.66
7830;BMP180;3960;51.86894000;5.39848000;2023-06-19T08:52:55;101269.63;;;26.95
7830;BMP180;3960;51.86894000;5.39848000;2023-06-19T08:55:24;101268.53;;;27.42
7830;BMP180;3960;51.86894000;5.39848000;2023-06-19T08:57:49;101260.47;;;27.38
7830;BMP180;3960;51.86894000;5.39848000;2023-06-19T09:00:31;101280.69;;;27.61
7830;BMP180;3960;51.86894000;5.39848000;2023-06-19T09:03:01;101275.34;;;27.52
7830;BMP180;3960;51.86894000;5.39848000;2023-06-19T09:05:27;101274.41;;;27.28
7830;BMP180;3960;51.86894000;5.39848000;2023-06-19T09:07:57;101266.09;;;27.17
7830;BMP180;3960;51.86894000;5.39848000;2023-06-19T09:10:23;101281.72;;;27.25
7830;BMP180;3960;51.86894000;5.39848000;2023-06-19T09:12:56;101295.09;;;27.43
7830;BMP180;3960;51.86894000;5.39848000;2023-06-19T09:15:22;101292.19;;;27.92
7830;BMP180;3960;51.86894000;5.39848000;2023-06-19T09:18:08;101298.69;;;28.11
7830;BMP180;3960;51.86894000;5.39848000;2023-06-19T09:20:38;101291.09;;;28.11
7830;BMP180;3960;51.86894000;5.39848000;2023-06-19T09:23:10;101295.97;;;27.95
7830;BMP180;3960;51.86894000;5.39848000;2023-06-19T09:28:19;101314.16;;;28.07
7830;BMP180;3960;51.86894000;5.39848000;2023-06-19T09:30:53;101294.34;;;28.26
7830;BMP180;3960;51.86894000;5.39848000;2023-06-19T09:33:18;101315.22;;;28.44
7830;BMP180;3960;51.86894000;5.39848000;2023-06-19T09:35:47;101309.00;;;28.67
7830;BMP180;3960;51.86894000;5.39848000;2023-06-19T09:38:13;101307.69;;;28.39
7830;BMP180;3960;51.86894000;5.39848000;2023-06-19T09:40:40;101294.19;;;28.48
7830;BMP180;3960;51.86894000;5.39848000;2023-06-19T09:43:06;101318.66;;;29.01
7830;BMP180;3960;51.86894000;5.39848000;2023-06-19T09:45:32;101317.84;;;29.35
7830;BMP180;3960;51.86894000;5.39848000;2023-06-19T09:47:58;101316.28;;;29.40
7830;BMP180;3960;51.86894000;5.39848000;2023-06-19T09:50:27;101311.94;;;29.44
7830;BMP180;3960;51.86894000;5.39848000;2023-06-19T09:52:55;101332.13;;;29.56
7830;BMP180;3960;51.86894000;5.39848000;2023-06-19T09:55:22;101321.75;;;29.74
7830;BMP180;3960;51.86894000;5.39848000;2023-06-19T09:57:49;101296.69;;;29.69
7830;BMP180;3960;51.86894000;5.39848000;2023-06-19T10:00:15;101300.81;;;29.86
7830;BMP180;3960;51.86894000;5.39848000;2023-06-19T10:02:47;101325.78;;;30.21
7830;BMP180;3960;51.86894000;5.39848000;2023-06-19T10:05:13;101328.53;;;30.45
7830;BMP180;3960;51.86894000;5.39848000;2023-06-19T10:07:42;101324.88;;;30.32
7830;BMP180;3960;51.86894000;5.39848000;2023-06-19T10:10:10;101321.91;;;30.24
7830;BMP180;3960;51.86894000;5.39848000;2023-06-19T10:12:41;101328.66;;;30.34
7830;BMP180;3960;51.86894000;5.39848000;2023-06-19T10:20:33;101318.84;;;30.96
7830;BMP180;3960;51.86894000;5.39848000;2023-06-19T10:23:19;101333.06;;;31.42
7830;BMP180;3960;51.86894000;5.39848000;2023-06-19T10:25:46;101321.91;;;31.11
7830;BMP180;3960;51.86894000;5.39848000;2023-06-19T10:33:18;101328.06;;;30.91
7830;BMP180;3960;51.86894000;5.39848000;2023-06-19T10:35:43;101321.59;;;31.14
7830;BMP180;3960;51.86894000;5.39848000;2023-06-19T10:38:09;101311.69;;;31.13
7830;BMP180;3960;51.86894000;5.39848000;2023-06-19T10:40:36;101312.50;;;30.95
7830;BMP180;3960;51.86894000;5.39848000;2023-06-19T10:43:02;101301.03;;;30.80
7830;BMP180;3960;51.86894000;5.39848000;2023-06-19T10:45:29;101304.44;;;30.73
7830;BMP180;3960;51.86894000;5.39848000;2023-06-19T10:48:00;101315.56;;;30.42
7830;BMP180;3960;51.86894000;5.39848000;2023-06-19T10:50:29;101302.00;;;30.15
7830;BMP180;3960;51.86894000;5.39848000;2023-06-19T10:52:55;101318.47;;;30.36
7830;BMP180;3960;51.86894000;5.39848000;2023-06-19T10:55:21;101304.53;;;30.13
7830;BMP180;3960;51.86894000;5.39848000;2023-06-19T10:57:50;101282.72;;;30.11
7830;BMP180;3960;51.86894000;5.39848000;2023-06-19T11:00:29;101299.78;;;30.63
7830;BMP180;3960;51.86894000;5.39848000;2023-06-19T11:02:59;101300.75;;;30.97
7830;BMP180;3960;51.86894000;5.39848000;2023-06-19T11:05:26;101323.03;;;31.46
7830;BMP180;3960;51.86894000;5.39848000;2023-06-19T11:08:17;101323.53;;;31.76
7830;BMP180;3960;51.86894000;5.39848000;2023-06-19T11:10:43;101307.69;;;31.53
7830;BMP180;3960;51.86894000;5.39848000;2023-06-19T11:13:17;101310.22;;;31.38
7830;BMP180;3960;51.86894000;5.39848000;2023-06-19T11:15:43;101320.34;;;31.28
7830;BMP180;3960;51.86894000;5.39848000;2023-06-19T11:18:08;101307.09;;;30.97
7830;BMP180;3960;51.86894000;5.39848000;2023-06-19T11:20:48;101315.81;;;30.62
7830;BMP180;3960;51.86894000;5.39848000;2023-06-19T11:23:25;101317.84;;;30.62
7830;BMP180;3960;51.86894000;5.39848000;2023-06-19T11:25:50;101297.06;;;30.39
7830;BMP180;3960;51.86894000;5.39848000;2023-06-19T11:28:17;101315.34;;;30.22
7830;BMP180;3960;51.86894000;5.39848000;2023-06-19T11:30:49;101317.72;;;30.54
7830;BMP180;3960;51.86894000;5.39848000;2023-06-19T11:33:22;101303.22;;;30.87
7830;BMP180;3960;51.86894000;5.39848000;2023-06-19T11:35:53;101319.69;;;31.22
7830;BMP180;3960;51.86894000;5.39848000;2023-06-19T11:38:20;101312.63;;;31.03
7830;BMP180;3960;51.86894000;5.39848000;2023-06-19T11:40:49;101307.28;;;31.05
7830;BMP180;3960;51.86894000;5.39848000;2023-06-19T11:43:29;101320.78;;;31.32
7830;BMP180;3960;51.86894000;5.39848000;2023-06-19T11:46:06;101323.47;;;31.37
7830;BMP180;3960;51.86894000;5.39848000;2023-06-19T11:48:31;101316.25;;;31.16
7830;BMP180;3960;51.86894000;5.39848000;2023-06-19T11:50:57;101308.31;;;31.02
7830;BMP180;3960;51.86894000;5.39848000;2023-06-19T11:53:24;101296.50;;;31.09
7830;BMP180;3960;51.86894000;5.39848000;2023-06-19T11:55:50;101293.00;;;31.34
7830;BMP180;3960;51.86894000;5.39848000;2023-06-19T11:58:15;101289.06;;;31.55
7830;BMP180;3960;51.86894000;5.39848000;2023-06-19T12:00:42;101300.16;;;31.74
7830;BMP180;3960;51.86894000;5.39848000;2023-06-19T12:03:08;101292.94;;;31.78
7830;BMP180;3960;51.86894000;5.39848000;2023-06-19T12:05:37;101287.00;;;31.94
7830;BMP180;3960;51.86894000;5.39848000;2023-06-19T12:08:02;101300.78;;;32.05
7830;BMP180;3960;51.86894000;5.39848000;2023-06-19T12:10:29;101293.97;;;32.14
7830;BMP180;3960;51.86894000;5.39848000;2023-06-19T12:12:55;101301.91;;;32.36
7830;BMP180;3960;51.86894000;5.39848000;2023-06-19T12:15:20;101292.66;;;32.48
7830;BMP180;3960;51.86894000;5.39848000;2023-06-19T12:17:46;101291.81;;;32.53
7830;BMP180;3960;51.86894000;5.39848000;2023-06-19T12:20:11;101306.94;;;32.70
7830;BMP180;3960;51.86894000;5.39848000;2023-06-19T12:22:38;101303.41;;;32.70
7830;BMP180;3960;51.86894000;5.39848000;2023-06-19T12:25:04;101303.47;;;32.57
7830;BMP180;3960;51.86894000;5.39848000;2023-06-19T12:27:29;101277.22;;;32.55
7830;BMP180;3960;51.86894000;5.39848000;2023-06-19T12:29:55;101301.22;;;32.76
7830;BMP180;3960;51.86894000;5.39848000;2023-06-19T12:32:20;101303.13;;;32.81
7830;BMP180;3960;51.86894000;5.39848000;2023-06-19T12:34:46;101289.25;;;32.75
7830;BMP180;3960;51.86894000;5.39848000;2023-06-19T12:37:15;101281.63;;;32.63
7830;BMP180;3960;51.86894000;5.39848000;2023-06-19T12:39:42;101303.66;;;32.59
7830;BMP180;3960;51.86894000;5.39848000;2023-06-19T12:42:08;101306.25;;;32.77
7830;BMP180;3960;51.86894000;5.39848000;2023-06-19T12:44:33;101285.00;;;32.62
7830;BMP180;3960;51.86894000;5.39848000;2023-06-19T12:47:00;101306.53;;;32.87
7830;BMP180;3960;51.86894000;5.39848000;2023-06-19T12:49:28;101291.78;;;32.86
7830;BMP180;3960;51.86894000;5.39848000;2023-06-19T12:51:54;101287.66;;;33.08
7830;BMP180;3960;51.86894000;5.39848000;2023-06-19T12:54:19;101288.69;;;32.77
7830;BMP180;3960;51.86894000;5.39848000;2023-06-19T12:56:45;101267.09;;;32.85
7830;BMP180;3960;51.86894000;5.39848000;2023-06-19T12:59:10;101291.91;;;33.01